createdAt,value
2023-01-30T00:01:02.134Z,16.40
2023-01-30T00:03:28.923Z,15.60
2023-01-30T00:05:55.605Z,16.13
2023-01-30T00:08:22.209Z,16.00
2023-01-30T00:10:49.551Z,14.13
2023-01-30T00:13:16.610Z,15.43
2023-01-30T00:15:43.762Z,13.98
2023-01-30T00:18:10.754Z,15.07
2023-01-30T00:20:37.488Z,14.52
2023-01-30T00:23:05.000Z,12.82
2023-01-30T00:25:31.957Z,13.00
2023-01-30T00:27:59.571Z,14.95
2023-01-30T00:30:26.207Z,13.18
2023-01-30T00:32:59.579Z,15.13
2023-01-30T00:35:28.947Z,13.60
2023-01-30T00:37:56.459Z,13.98
2023-01-30T00:40:23.432Z,14.60
2023-01-30T00:43:04.150Z,14.18
2023-01-30T00:45:46.365Z,11.93
2023-01-30T00:48:13.134Z,12.27
2023-01-30T00:50:42.748Z,13.07
2023-01-30T00:53:10.467Z,12.95
2023-01-30T00:55:37.202Z,15.73
2023-01-30T00:58:03.768Z,13.85
2023-01-30T01:00:30.571Z,15.15
2023-01-30T01:02:57.361Z,13.43
2023-01-30T01:05:24.019Z,14.02
2023-01-30T01:07:50.711Z,12.85
2023-01-30T01:10:17.504Z,13.68
2023-01-30T01:12:44.804Z,13.73
2023-01-30T01:15:12.580Z,14.18
2023-01-30T01:17:39.926Z,13.38
2023-01-30T01:20:07.325Z,13.30
2023-01-30T01:22:33.968Z,13.80
2023-01-30T01:25:00.488Z,13.02
2023-01-30T01:27:27.209Z,13.90
2023-01-30T01:29:53.845Z,12.25
2023-01-30T01:32:20.774Z,12.82
2023-01-30T01:34:47.541Z,14.40
2023-01-30T01:37:14.200Z,13.82
2023-01-30T01:39:54.611Z,12.13
2023-01-30T01:42:22.933Z,14.43
2023-01-30T01:45:03.796Z,14.02
2023-01-30T01:47:31.476Z,12.00
2023-01-30T01:49:58.084Z,13.23
2023-01-30T01:52:24.956Z,13.40
2023-01-30T01:55:09.700Z,12.30
2023-01-30T01:57:40.024Z,13.98
2023-01-30T02:00:12.218Z,13.10
2023-01-30T02:02:40.671Z,15.55
2023-01-30T02:05:07.569Z,9.82
2023-01-30T02:07:48.173Z,13.10
2023-01-30T02:10:22.388Z,13.27
2023-01-30T02:12:50.460Z,13.10
2023-01-30T02:15:17.926Z,12.90
2023-01-30T02:17:44.703Z,13.15
2023-01-30T02:20:14.326Z,12.93
2023-01-30T02:22:40.841Z,12.82
2023-01-30T02:25:07.362Z,12.45
2023-01-30T02:27:47.852Z,13.55
2023-01-30T02:30:28.404Z,12.20
2023-01-30T02:33:03.933Z,8.82
2023-01-30T02:35:36.248Z,10.57
2023-01-30T02:38:02.769Z,10.38
2023-01-30T02:40:43.367Z,12.10
2023-01-30T02:43:24.828Z,12.80
2023-01-30T02:45:57.385Z,11.60
2023-01-30T02:48:44.179Z,12.07
2023-01-30T02:51:17.109Z,12.45
2023-01-30T02:53:43.678Z,12.20
2023-01-30T02:56:10.335Z,12.82
2023-01-30T02:58:40.668Z,13.10
2023-01-30T03:01:25.262Z,12.48
2023-01-30T03:03:51.845Z,11.95
2023-01-30T03:06:32.337Z,12.27
2023-01-30T03:08:58.983Z,12.45
2023-01-30T03:11:29.651Z,10.75
2023-01-30T03:14:02.510Z,12.98
2023-01-30T03:16:32.069Z,11.82
2023-01-30T03:19:02.275Z,13.23
2023-01-30T03:21:28.809Z,12.40
2023-01-30T03:23:55.432Z,11.90
2023-01-30T03:26:23.844Z,11.38
2023-01-30T03:28:50.979Z,11.57
2023-01-30T03:31:17.824Z,12.32
2023-01-30T03:33:44.550Z,11.55
2023-01-30T03:36:11.228Z,11.95
2023-01-30T03:38:37.852Z,11.95
2023-01-30T03:41:05.499Z,8.20
2023-01-30T03:43:32.043Z,8.68
2023-01-30T03:45:58.645Z,10.63
2023-01-30T03:48:25.517Z,11.82
2023-01-30T03:50:52.084Z,11.77
2023-01-30T03:53:18.851Z,11.95
2023-01-30T03:55:45.640Z,11.95
2023-01-30T03:58:12.161Z,12.93
2023-01-30T04:00:38.838Z,12.27
2023-01-30T04:03:05.456Z,12.57
2023-01-30T04:05:32.162Z,13.35
2023-01-30T04:07:59.069Z,19.15
2023-01-30T04:10:26.191Z,13.77
2023-01-30T04:12:52.794Z,12.75
2023-01-30T04:15:19.787Z,14.82
2023-01-30T04:17:47.980Z,15.85
2023-01-30T04:20:14.613Z,15.55
2023-01-30T04:22:41.357Z,17.38
2023-01-30T04:25:08.492Z,18.90
2023-01-30T04:27:35.037Z,14.05
2023-01-30T04:30:01.670Z,15.88
2023-01-30T04:32:29.612Z,15.02
2023-01-30T04:34:56.229Z,14.35
2023-01-30T04:37:22.886Z,31.40
2023-01-30T04:39:49.528Z,17.23
2023-01-30T04:42:16.154Z,18.80
2023-01-30T04:44:42.750Z,21.38
2023-01-30T04:47:09.466Z,27.00
2023-01-30T04:49:36.104Z,36.03
2023-01-30T04:52:02.797Z,19.98
2023-01-30T04:54:29.926Z,18.52
2023-01-30T04:56:57.748Z,19.27
2023-01-30T04:59:24.471Z,17.13
2023-01-30T05:01:51.151Z,19.10
2023-01-30T05:04:17.786Z,20.63
2023-01-30T05:06:44.495Z,16.98
2023-01-30T05:09:11.482Z,17.02
2023-01-30T05:11:38.152Z,19.77
2023-01-30T05:14:04.807Z,20.67
2023-01-30T05:16:31.577Z,19.15
2023-01-30T05:18:58.336Z,19.25
2023-01-30T05:21:28.861Z,18.90
2023-01-30T05:23:56.108Z,19.83
2023-01-30T05:26:23.744Z,15.50
2023-01-30T05:28:54.675Z,20.00
2023-01-30T05:31:21.828Z,20.42
2023-01-30T05:33:49.148Z,16.63
2023-01-30T05:36:16.981Z,18.67
2023-01-30T05:38:44.497Z,19.15
2023-01-30T05:41:12.313Z,17.27
2023-01-30T05:43:39.090Z,16.15
2023-01-30T05:46:06.830Z,18.13
2023-01-30T05:48:33.823Z,17.00
2023-01-30T05:51:00.883Z,20.27
2023-01-30T05:53:28.603Z,20.73
2023-01-30T05:55:59.466Z,16.92
2023-01-30T05:58:27.099Z,17.38
2023-01-30T06:00:54.140Z,16.02
2023-01-30T06:03:20.912Z,16.95
2023-01-30T06:05:48.211Z,14.27
2023-01-30T06:08:15.069Z,18.63
2023-01-30T06:10:41.810Z,16.02
2023-01-30T06:13:11.210Z,18.02
2023-01-30T06:15:38.332Z,16.55
2023-01-30T06:18:05.068Z,17.75
2023-01-30T06:20:31.909Z,14.55
2023-01-30T06:22:58.568Z,17.80
2023-01-30T06:25:25.359Z,14.57
2023-01-30T06:27:52.116Z,17.50
2023-01-30T06:30:19.011Z,15.05
2023-01-30T06:32:45.755Z,16.55
2023-01-30T06:35:12.476Z,22.17
2023-01-30T06:37:39.092Z,16.48
2023-01-30T06:40:05.929Z,15.18
2023-01-30T06:42:32.565Z,16.92
2023-01-30T06:44:59.176Z,12.98
2023-01-30T06:47:25.769Z,13.80
2023-01-30T06:49:52.343Z,16.60
2023-01-30T06:52:18.903Z,13.35
2023-01-30T06:54:45.415Z,13.73
2023-01-30T06:57:12.722Z,15.40
2023-01-30T06:59:39.272Z,15.40
2023-01-30T07:02:05.932Z,13.63
2023-01-30T07:04:32.780Z,13.52
2023-01-30T07:06:59.388Z,13.48
2023-01-30T07:09:25.959Z,9.45
2023-01-30T07:11:52.611Z,15.57
2023-01-30T07:14:19.210Z,13.55
2023-01-30T07:16:46.847Z,13.63
2023-01-30T07:19:13.555Z,13.43
2023-01-30T07:21:40.084Z,13.45
2023-01-30T07:24:06.880Z,12.43
2023-01-30T07:26:33.615Z,12.77
2023-01-30T07:29:00.207Z,12.98
2023-01-30T07:31:26.809Z,12.52
2023-01-30T07:33:53.415Z,13.20
2023-01-30T07:36:20.012Z,12.40
2023-01-30T07:38:48.176Z,12.75
2023-01-30T07:41:14.942Z,12.93
2023-01-30T07:43:41.487Z,15.85
2023-01-30T07:46:08.095Z,12.98
2023-01-30T07:48:34.698Z,13.52
2023-01-30T07:51:01.251Z,15.93
2023-01-30T07:53:27.820Z,21.58
2023-01-30T07:55:54.452Z,21.20
2023-01-30T07:58:20.987Z,18.67
2023-01-30T08:00:47.745Z,13.15
2023-01-30T08:03:15.570Z,17.25
2023-01-30T08:05:42.191Z,14.70
2023-01-30T08:08:08.737Z,13.27
2023-01-30T08:10:35.983Z,15.82
2023-01-30T08:13:02.769Z,14.98
2023-01-30T08:15:31.631Z,17.05
2023-01-30T08:17:58.303Z,15.07
2023-01-30T08:20:25.441Z,13.52
2023-01-30T08:22:52.112Z,17.33
2023-01-30T08:25:19.089Z,16.00
2023-01-30T08:27:45.726Z,17.13
2023-01-30T08:30:12.590Z,12.88
2023-01-30T08:32:39.233Z,14.02
2023-01-30T08:35:05.978Z,14.93
2023-01-30T08:37:32.620Z,15.63
2023-01-30T08:39:59.229Z,16.80
2023-01-30T08:42:25.789Z,13.40
2023-01-30T08:44:52.411Z,21.52
2023-01-30T08:47:19.058Z,14.63
2023-01-30T08:49:45.663Z,18.33
2023-01-30T08:52:12.253Z,14.82
2023-01-30T08:54:39.018Z,13.55
2023-01-30T08:57:05.569Z,15.65
2023-01-30T08:59:32.119Z,14.77
2023-01-30T09:01:58.693Z,14.30
2023-01-30T09:04:26.530Z,13.50
2023-01-30T09:06:53.120Z,14.35
2023-01-30T09:09:19.772Z,14.63
2023-01-30T09:11:48.147Z,11.35
2023-01-30T09:14:19.625Z,10.30
2023-01-30T09:16:47.704Z,10.88
2023-01-30T09:19:14.399Z,12.38
2023-01-30T09:21:40.998Z,15.30
2023-01-30T09:24:07.800Z,12.32
2023-01-30T09:26:34.398Z,14.75
2023-01-30T09:29:01.308Z,12.98
2023-01-30T09:31:28.101Z,14.20
2023-01-30T09:33:54.745Z,16.73
2023-01-30T09:36:21.300Z,13.00
2023-01-30T09:38:47.909Z,14.88
2023-01-30T09:41:20.325Z,14.25
2023-01-30T09:44:00.864Z,15.43
2023-01-30T09:46:36.418Z,16.38
2023-01-30T09:49:02.977Z,15.30
2023-01-30T09:51:44.059Z,15.73
2023-01-30T09:54:21.962Z,14.65
2023-01-30T09:56:56.144Z,18.15
2023-01-30T09:59:25.738Z,15.65
2023-01-30T10:02:15.330Z,14.98
2023-01-30T10:05:00.142Z,14.00
2023-01-30T10:07:37.009Z,15.10
2023-01-30T10:10:10.379Z,12.52
2023-01-30T10:12:40.043Z,15.40
2023-01-30T10:15:09.334Z,16.35
2023-01-30T10:17:35.908Z,13.65
2023-01-30T10:20:06.853Z,14.77
2023-01-30T10:22:39.666Z,16.73
2023-01-30T10:25:20.292Z,14.68
2023-01-30T10:27:51.616Z,13.45
2023-01-30T10:30:18.601Z,15.27
2023-01-30T10:32:48.407Z,14.80
2023-01-30T10:35:27.046Z,13.63
2023-01-30T10:38:04.953Z,14.07
2023-01-30T10:40:31.487Z,12.43
2023-01-30T10:43:01.035Z,14.10
2023-01-30T10:45:47.882Z,21.60
2023-01-30T10:48:28.681Z,12.90
2023-01-30T10:51:04.695Z,28.30
2023-01-30T10:53:37.618Z,15.02
2023-01-30T10:56:08.777Z,21.80
2023-01-30T10:58:41.603Z,17.95
2023-01-30T11:01:16.055Z,13.75
2023-01-30T11:03:48.053Z,15.68
2023-01-30T11:06:18.926Z,20.45
2023-01-30T11:08:45.888Z,14.95
2023-01-30T11:11:21.890Z,15.30
2023-01-30T11:13:48.429Z,14.38
2023-01-30T11:16:15.782Z,15.15
2023-01-30T11:21:43.896Z,17.13
2023-01-30T11:24:19.794Z,13.93
2023-01-30T11:26:48.370Z,13.32
2023-01-30T11:29:29.291Z,14.38
2023-01-30T11:31:56.619Z,14.10
2023-01-30T11:34:25.004Z,15.40
2023-01-30T11:36:51.797Z,15.00
2023-01-30T11:39:23.366Z,13.27
2023-01-30T11:41:55.784Z,14.35
2023-01-30T11:44:33.092Z,15.60
2023-01-30T11:47:01.251Z,14.57
2023-01-30T11:49:45.042Z,16.20
2023-01-30T11:52:13.868Z,13.52
2023-01-30T11:54:44.650Z,16.83
2023-01-30T11:57:13.625Z,16.75
2023-01-30T11:59:54.619Z,15.20
2023-01-30T12:02:25.556Z,23.73
2023-01-30T12:04:54.992Z,15.32
2023-01-30T12:07:26.279Z,14.48
2023-01-30T12:09:55.059Z,15.20
2023-01-30T12:12:35.576Z,19.58
2023-01-30T12:15:16.127Z,16.92
2023-01-30T12:17:46.307Z,15.20
2023-01-30T12:20:19.975Z,14.63
2023-01-30T12:23:11.902Z,16.47
2023-01-30T12:25:45.032Z,17.25
2023-01-30T12:28:15.082Z,15.35
2023-01-30T12:30:55.120Z,14.18
2023-01-30T12:33:22.229Z,14.60
2023-01-30T12:35:57.981Z,13.50
2023-01-30T12:38:50.523Z,13.38
2023-01-30T12:41:23.208Z,14.65
2023-01-30T12:43:49.730Z,12.00
2023-01-30T12:46:19.341Z,13.75
2023-01-30T12:48:48.926Z,14.73
2023-01-30T12:51:49.527Z,11.77
2023-01-30T12:54:22.271Z,15.88
2023-01-30T12:56:49.388Z,16.58
2023-01-30T12:59:16.143Z,17.05
2023-01-30T13:01:56.970Z,15.82
2023-01-30T13:04:40.011Z,17.73
2023-01-30T13:07:09.743Z,25.30
2023-01-30T13:09:42.382Z,16.20
2023-01-30T13:12:18.026Z,16.23
2023-01-30T13:14:58.406Z,16.98
2023-01-30T13:17:38.924Z,15.70
2023-01-30T13:20:15.638Z,14.23
2023-01-30T13:22:51.624Z,15.93
2023-01-30T13:25:31.429Z,14.77
2023-01-30T13:28:02.849Z,15.35
2023-01-30T13:30:31.276Z,15.45
2023-01-30T13:33:00.330Z,17.92
2023-01-30T13:35:31.963Z,16.60
2023-01-30T13:37:59.143Z,16.67
2023-01-30T13:40:27.496Z,12.95
2023-01-30T13:42:58.704Z,15.93
2023-01-30T13:45:30.499Z,16.23
2023-01-30T13:47:57.044Z,16.17
2023-01-30T13:50:31.071Z,14.70
2023-01-30T13:53:00.906Z,15.20
2023-01-30T13:55:27.670Z,15.35
2023-01-30T13:57:56.899Z,13.27
2023-01-30T14:00:30.851Z,12.60
2023-01-30T14:03:03.292Z,15.30
2023-01-30T14:05:48.538Z,15.07
2023-01-30T14:08:22.921Z,15.75
2023-01-30T14:10:50.028Z,15.45
2023-01-30T14:13:17.718Z,11.25
2023-01-30T14:15:53.437Z,10.82
2023-01-30T14:18:22.659Z,13.80
2023-01-30T14:20:50.498Z,13.13
2023-01-30T14:23:30.167Z,15.18
2023-01-30T14:25:57.375Z,21.30
2023-01-30T14:28:23.913Z,14.10
2023-01-30T14:30:51.093Z,15.35
2023-01-30T14:33:23.893Z,9.73
2023-01-30T14:36:04.488Z,11.88
2023-01-30T14:38:32.116Z,11.32
2023-01-30T14:40:58.815Z,10.57
2023-01-30T14:43:25.418Z,12.73
2023-01-30T14:45:53.526Z,12.77
2023-01-30T14:48:29.145Z,12.02
2023-01-30T14:51:12.111Z,9.93
2023-01-30T14:53:52.730Z,9.20
2023-01-30T14:56:20.257Z,8.90
2023-01-30T14:58:57.007Z,9.40
2023-01-30T15:01:23.720Z,9.45
2023-01-30T15:03:50.723Z,10.57
2023-01-30T15:06:19.818Z,9.88
2023-01-30T15:08:46.849Z,10.80
2023-01-30T15:11:26.635Z,11.20
2023-01-30T15:14:02.410Z,12.23
2023-01-30T15:16:44.072Z,13.18
2023-01-30T15:19:21.047Z,16.10
2023-01-30T15:21:53.893Z,23.65
2023-01-30T15:24:27.227Z,24.27
2023-01-30T15:27:07.834Z,30.40
2023-01-30T15:29:40.292Z,28.50
2023-01-30T15:32:16.179Z,24.85
2023-01-30T15:35:12.680Z,18.65
2023-01-30T15:37:53.902Z,25.67
2023-01-30T15:40:23.356Z,18.95
2023-01-30T15:42:57.726Z,21.15
2023-01-30T15:45:38.303Z,24.58
2023-01-30T15:48:07.807Z,21.20
2023-01-30T15:50:34.599Z,15.98
2023-01-30T15:53:01.569Z,18.10
2023-01-30T15:55:37.443Z,15.55
2023-01-30T15:58:09.897Z,16.85
2023-01-30T16:00:37.971Z,19.63
2023-01-30T16:03:05.985Z,23.42
2023-01-30T16:05:32.673Z,15.50
2023-01-30T16:08:09.586Z,20.02
2023-01-30T16:10:43.550Z,23.63
2023-01-30T16:13:10.391Z,25.65
2023-01-30T16:15:51.099Z,34.10
2023-01-30T16:18:20.547Z,42.75
2023-01-30T16:21:01.699Z,21.75
2023-01-30T16:23:35.409Z,32.88
2023-01-30T16:26:02.893Z,14.82
2023-01-30T16:28:30.673Z,15.93
2023-01-30T16:31:08.139Z,18.17
2023-01-30T16:33:37.621Z,18.83
2023-01-30T16:36:27.688Z,19.88
2023-01-30T16:38:55.220Z,14.90
2023-01-30T16:41:36.042Z,14.48
2023-01-30T16:44:16.771Z,14.20
2023-01-30T16:46:49.387Z,17.17
2023-01-30T16:49:18.598Z,18.25
2023-01-30T16:51:46.058Z,23.40
2023-01-30T16:54:24.732Z,21.58
2023-01-30T16:56:52.910Z,21.15
2023-01-30T16:59:45.988Z,17.30
2023-01-30T17:02:24.398Z,17.45
2023-01-30T17:04:51.350Z,16.70
2023-01-30T17:07:32.532Z,16.30
2023-01-30T17:09:59.517Z,20.05
2023-01-30T17:12:39.055Z,14.73
2023-01-30T17:15:14.733Z,15.52
2023-01-30T17:17:41.743Z,12.70
2023-01-30T17:20:09.239Z,10.77
2023-01-30T17:22:37.359Z,11.90
2023-01-30T17:25:14.522Z,14.82
2023-01-30T17:27:41.642Z,10.93
2023-01-30T17:30:15.648Z,9.52
2023-01-30T17:32:42.417Z,11.10
2023-01-30T17:35:09.540Z,10.30
2023-01-30T17:37:36.768Z,9.73
2023-01-30T17:40:04.669Z,9.13
2023-01-30T17:42:32.169Z,11.13
2023-01-30T17:45:00.062Z,21.60
2023-01-30T17:47:27.068Z,31.17
2023-01-30T17:49:55.798Z,27.02
2023-01-30T17:52:22.700Z,9.57
2023-01-30T17:54:49.605Z,21.08
2023-01-30T17:57:17.070Z,17.80
2023-01-30T17:59:43.995Z,16.05
2023-01-30T18:02:10.939Z,20.45
2023-01-30T18:04:40.125Z,17.33
2023-01-30T18:07:09.917Z,15.50
2023-01-30T18:09:37.109Z,18.17
2023-01-30T18:12:03.880Z,12.65
2023-01-30T18:14:30.634Z,11.52
2023-01-30T18:17:00.586Z,9.05
2023-01-30T18:19:28.786Z,9.23
2023-01-30T18:21:58.033Z,10.77
2023-01-30T18:24:25.123Z,16.25
2023-01-30T18:26:52.081Z,12.52
2023-01-30T18:29:19.070Z,15.98
2023-01-30T18:31:46.135Z,18.00
2023-01-30T18:34:13.180Z,13.55
2023-01-30T18:36:47.224Z,16.65
2023-01-30T18:39:15.537Z,26.48
2023-01-30T18:41:55.798Z,15.23
2023-01-30T18:44:55.401Z,15.50
2023-01-30T18:47:30.564Z,11.13
2023-01-30T19:04:05.338Z,20.63
2023-01-30T19:06:35.845Z,26.50
2023-01-30T19:09:05.400Z,25.75
2023-01-30T19:11:46.325Z,21.20
2023-01-30T19:14:27.376Z,20.00
2023-01-30T19:16:55.116Z,17.92
2023-01-30T19:19:22.193Z,17.75
2023-01-30T19:21:51.005Z,22.88
2023-01-30T19:24:18.134Z,15.05
2023-01-30T19:26:45.300Z,15.48
2023-01-30T19:29:12.106Z,14.45
2023-01-30T19:31:40.877Z,15.07
2023-01-30T19:34:08.906Z,20.70
2023-01-30T19:36:36.795Z,22.15
2023-01-30T19:39:08.535Z,24.35
2023-01-30T19:41:37.201Z,48.05
2023-01-30T19:44:05.565Z,35.58
2023-01-30T19:46:32.808Z,23.73
2023-01-30T19:48:59.615Z,14.18
2023-01-30T19:51:28.630Z,11.45
2023-01-30T19:53:56.674Z,19.48
2023-01-30T19:56:25.073Z,11.30
2023-01-30T19:58:52.785Z,11.90
2023-01-30T20:01:20.423Z,14.20
2023-01-30T20:03:47.178Z,12.45
2023-01-30T20:06:18.454Z,13.27
2023-01-30T20:08:45.798Z,12.48
2023-01-30T20:11:13.683Z,11.52
2023-01-30T20:13:41.270Z,13.25
2023-01-30T20:16:09.596Z,10.05
2023-01-30T20:18:38.377Z,16.73
2023-01-30T20:21:08.885Z,10.98
2023-01-30T20:23:35.694Z,10.00
2023-01-30T20:26:06.090Z,10.23
2023-01-30T20:28:33.630Z,7.72
2023-01-30T20:31:00.578Z,8.57
2023-01-30T20:33:27.905Z,8.25
2023-01-30T20:35:54.557Z,8.07
2023-01-30T20:38:21.141Z,7.30
2023-01-30T20:40:47.904Z,8.50
2023-01-30T20:43:14.638Z,6.82
2023-01-30T20:45:41.278Z,6.53
2023-01-30T20:48:07.945Z,6.25
2023-01-30T20:50:34.631Z,6.75
2023-01-30T20:53:01.952Z,7.88
2023-01-30T20:55:28.541Z,7.45
2023-01-30T20:57:55.231Z,6.05
2023-01-30T21:00:21.869Z,6.50
2023-01-30T21:02:51.865Z,6.28
2023-01-30T21:05:19.596Z,7.38
2023-01-30T21:07:46.475Z,7.75
2023-01-30T21:10:13.160Z,7.85
2023-01-30T21:12:39.860Z,7.93
2023-01-30T21:15:06.837Z,7.47
2023-01-30T21:17:33.790Z,6.60
2023-01-30T21:20:00.477Z,7.97
2023-01-30T21:22:28.691Z,7.13
2023-01-30T21:24:55.258Z,7.13
2023-01-30T21:27:22.241Z,6.80
2023-01-30T21:29:48.911Z,7.75
2023-01-30T21:32:15.561Z,8.82
2023-01-30T21:34:42.139Z,9.50
2023-01-30T21:37:22.613Z,8.60
2023-01-30T21:40:03.093Z,9.18
2023-01-30T21:42:43.625Z,10.32
2023-01-30T21:45:10.266Z,10.55
2023-01-30T21:47:37.131Z,11.27
2023-01-30T21:50:03.942Z,11.63
2023-01-30T21:52:31.476Z,11.02
2023-01-30T21:54:58.720Z,11.55
2023-01-30T21:57:25.883Z,11.25
2023-01-30T21:59:52.880Z,11.02
2023-01-30T22:02:19.411Z,11.13
2023-01-30T22:04:45.981Z,11.07
2023-01-30T22:07:12.560Z,13.45
2023-01-30T22:09:39.064Z,11.82
2023-01-30T22:12:05.670Z,12.63
2023-01-30T22:14:35.316Z,10.82
2023-01-30T22:17:02.075Z,12.20
2023-01-30T22:19:35.459Z,11.52
2023-01-30T22:22:02.758Z,11.90
2023-01-30T22:24:29.335Z,16.60
2023-01-30T22:26:56.082Z,13.98
2023-01-30T22:29:22.753Z,11.60
2023-01-30T22:31:49.392Z,11.75
2023-01-30T22:34:16.139Z,10.35
2023-01-30T22:36:42.806Z,9.32
2023-01-30T22:39:09.550Z,9.65
2023-01-30T22:41:36.402Z,9.73
2023-01-30T22:44:04.318Z,10.80
2023-01-30T22:46:32.315Z,11.57
2023-01-30T22:48:59.855Z,9.70
2023-01-30T22:51:29.529Z,9.52
2023-01-30T22:54:00.161Z,10.32
2023-01-30T22:56:27.803Z,11.07
2023-01-30T22:58:54.360Z,10.60
2023-01-30T23:01:23.159Z,8.82
2023-01-30T23:03:54.664Z,10.60
2023-01-30T23:06:21.375Z,9.25
2023-01-30T23:08:48.693Z,7.40
2023-01-30T23:11:15.187Z,7.43
2023-01-30T23:13:42.629Z,6.32
2023-01-30T23:16:09.387Z,6.95
2023-01-30T23:18:49.866Z,7.18
2023-01-30T23:21:16.912Z,6.85
2023-01-30T23:23:43.993Z,6.85
2023-01-30T23:26:10.936Z,6.63
2023-01-30T23:28:38.088Z,10.00
2023-01-30T23:31:05.384Z,8.80
2023-01-30T23:33:32.162Z,8.13
2023-01-30T23:36:05.867Z,8.07
2023-01-30T23:38:32.848Z,7.88
2023-01-30T23:41:08.779Z,7.63
2023-01-30T23:43:35.728Z,6.47
2023-01-30T23:46:16.308Z,8.40
2023-01-30T23:48:43.715Z,9.13
2023-01-30T23:51:10.629Z,8.95
2023-01-30T23:53:37.462Z,7.10
2023-01-30T23:56:04.525Z,7.25
2023-01-30T23:58:31.203Z,8.45
